Crew | Aerofun Virtual



 METAR AND TAF INFORMATION
METAR FOR EETN
ADDS - METARS form results

(0456 UTC 20 May 2019)
Data provider http://aviationweather.gov/metar/data/
 
METAR text: EETN 200450Z 14004KT CAVOK 17/10 Q1015 NOSIG
Conditions at: EETN (TALLINN , EE) observed 0450 UTC 20 May 2019
Temperature: 17.0°C (63°F)
Dewpoint: 10.0°C (50°F) [RH = 63%]
Pressure (altimeter): 29.97 inches Hg (1015.0 mb)
Winds: from the SE (140 degrees) at 5 MPH (4 knots; 2.1 m/s)
Visibility: 6 or more miles (10+ km)
Ceiling: ceiling and visibility are OK
Clouds: unknown
Weather: no significant weather observed at this time

METAR text: EETN 200420Z 13004KT CAVOK 16/09 Q1015 NOSIG
Conditions at: EETN (TALLINN , EE) observed 0420 UTC 20 May 2019
Temperature: 16.0°C (61°F)
Dewpoint: 9.0°C (48°F) [RH = 63%]
Pressure (altimeter): 29.97 inches Hg (1015.0 mb)
Winds: from the SE (130 degrees) at 5 MPH (4 knots; 2.1 m/s)
Visibility: 6 or more miles (10+ km)
Ceiling: ceiling and visibility are OK
Clouds: unknown
Weather: no significant weather observed at this time

Forecast for: EETN (TALLINN , EE)
Text: TAF EETN 192300Z 2000/2024 14005KT CAVOK
Forecast period: 0000 UTC 20 May 2019 to 0000 UTC 21 May 2019
Forecast type: FROM: standard forecast or significant change
Winds: from the SE (140 degrees) at 6 MPH (5 knots; 2.6 m/s)
Visibility: 6 or more miles 10+ km)
Ceiling: unknown
Clouds: missing
Weather: NSW  (no significant weather)
Text: TEMPO 2008/2013 14015KT
Forecast period: 0800 to 1300 UTC 20 May 2019
Forecast type: TEMPORARY: The following changes expected for less than half the time period
Winds: from the SE (140 degrees) at 17 MPH (15 knots; 7.7 m/s)
Visibility: missing
Ceiling: unknown
Clouds: missing
Weather: no significant weather forecast for this period
Text: PROB30
Forecast period: 1100 to 1600 UTC 20 May 2019
Forecast type: TEMPORARY: The following changes expected for less than half the time period
Visibility: missing
Ceiling: at least 12,000 feet AGL
Clouds: few clouds at 3000 feet AGL
Weather: no significant weather forecast for this period

 AIRPORT MAP

 RUNWAY INFORMATION
Runway 08 Runway length 10072 ft Runway width 148 ft
Runway elevation 129 ft Runway displaced threshold 820 ft Runway heading 90
Runway 26 Runway length 10072 ft Runway width 148 ft
Runway elevation 131 ft Runway displaced threshold 0 ft Runway heading 270

 AIRPORT FREQUENCIES
Type APP Name APP Frequency 127.9 MHZ
Type ATIS Name ATIS Frequency 124.875 MHZ
Type TWR Name TWR Frequency 120.6 MHZ

 AIRPORT NEAR NAVIGATION AIDS
Type NDB Name Tallinn Frequency 329 KHZ
Type NDB Name Tallinn Frequency 386 KHZ
Type VOR-DME Name Tallinn Frequency 112200 KHZ